sensor_id;sensor_type;location;lat;lon;timestamp;pressure;altitude;pressure_sealevel;temperature;humidity
40998;BME280;26740;45.944;12.480;2023-03-20T00:00:57;101593.00;;;9.09;100.00
40998;BME280;26740;45.944;12.480;2023-03-20T00:03:23;101585.91;;;8.88;100.00
40998;BME280;26740;45.944;12.480;2023-03-20T00:05:49;101591.00;;;8.91;100.00
40998;BME280;26740;45.944;12.480;2023-03-20T00:08:15;101585.88;;;8.95;100.00
40998;BME280;26740;45.944;12.480;2023-03-20T00:10:44;101598.09;;;8.81;100.00
40998;BME280;26740;45.944;12.480;2023-03-20T00:13:21;101584.91;;;8.76;100.00
40998;BME280;26740;45.944;12.480;2023-03-20T00:15:49;101582.41;;;8.68;100.00
40998;BME280;26740;45.944;12.480;2023-03-20T00:18:16;101580.75;;;8.60;100.00
40998;BME280;26740;45.944;12.480;2023-03-20T00:20:45;101571.78;;;8.65;100.00
40998;BME280;26740;45.944;12.480;2023-03-20T00:23:11;101570.91;;;8.64;100.00
40998;BME280;26740;45.944;12.480;2023-03-20T00:25:38;101566.41;;;8.70;100.00
40998;BME280;26740;45.944;12.480;2023-03-20T00:30:47;101570.50;;;8.61;100.00
40998;BME280;26740;45.944;12.480;2023-03-20T00:33:13;101573.31;;;8.54;100.00
40998;BME280;26740;45.944;12.480;2023-03-20T00:35:39;101575.25;;;8.53;100.00
40998;BME280;26740;45.944;12.480;2023-03-20T00:38:04;101573.09;;;8.56;100.00
40998;BME280;26740;45.944;12.480;2023-03-20T00:40:30;101572.44;;;8.60;100.00
40998;BME280;26740;45.944;12.480;2023-03-20T00:43:01;101568.13;;;8.71;100.00
40998;BME280;26740;45.944;12.480;2023-03-20T00:45:29;101565.09;;;8.79;100.00
40998;BME280;26740;45.944;12.480;2023-03-20T00:47:55;101571.38;;;8.93;100.00
40998;BME280;26740;45.944;12.480;2023-03-20T00:50:25;101573.06;;;8.94;100.00
40998;BME280;26740;45.944;12.480;2023-03-20T00:52:51;101562.91;;;8.88;100.00
40998;BME280;26740;45.944;12.480;2023-03-20T00:55:19;101557.19;;;8.83;100.00
40998;BME280;26740;45.944;12.480;2023-03-20T00:58:00;101556.75;;;8.86;100.00
40998;BME280;26740;45.944;12.480;2023-03-20T01:00:43;101550.56;;;8.84;100.00
40998;BME280;26740;45.944;12.480;2023-03-20T01:03:19;101550.13;;;8.87;100.00
40998;BME280;26740;45.944;12.480;2023-03-20T01:05:45;101549.22;;;8.93;100.00
40998;BME280;26740;45.944;12.480;2023-03-20T01:08:22;101542.59;;;8.94;100.00
40998;BME280;26740;45.944;12.480;2023-03-20T01:10:52;101550.44;;;9.04;100.00
40998;BME280;26740;45.944;12.480;2023-03-20T01:13:22;101545.78;;;9.23;100.00
40998;BME280;26740;45.944;12.480;2023-03-20T01:15:49;101542.22;;;9.16;100.00
40998;BME280;26740;45.944;12.480;2023-03-20T01:18:16;101542.28;;;9.09;100.00
40998;BME280;26740;45.944;12.480;2023-03-20T01:20:42;101540.34;;;9.09;100.00
40998;BME280;26740;45.944;12.480;2023-03-20T01:23:09;101540.69;;;9.20;100.00
40998;BME280;26740;45.944;12.480;2023-03-20T01:25:35;101541.50;;;9.02;100.00
40998;BME280;26740;45.944;12.480;2023-03-20T01:28:02;101534.69;;;8.98;100.00
40998;BME280;26740;45.944;12.480;2023-03-20T01:30:31;101539.78;;;9.01;100.00
40998;BME280;26740;45.944;12.480;2023-03-20T01:32:59;101533.63;;;8.99;100.00
40998;BME280;26740;45.944;12.480;2023-03-20T01:35:28;101533.41;;;9.00;100.00
40998;BME280;26740;45.944;12.480;2023-03-20T01:37:54;101527.88;;;9.00;100.00
40998;BME280;26740;45.944;12.480;2023-03-20T01:42:46;101514.63;;;9.02;100.00
40998;BME280;26740;45.944;12.480;2023-03-20T01:45:15;101530.16;;;9.03;100.00
40998;BME280;26740;45.944;12.480;2023-03-20T01:47:41;101519.72;;;9.05;100.00
40998;BME280;26740;45.944;12.480;2023-03-20T01:52:45;101512.81;;;9.15;100.00
40998;BME280;26740;45.944;12.480;2023-03-20T01:55:13;101517.44;;;9.21;100.00
40998;BME280;26740;45.944;12.480;2023-03-20T01:57:39;101512.69;;;9.28;100.00
40998;BME280;26740;45.944;12.480;2023-03-20T02:00:09;101514.84;;;9.26;100.00
40998;BME280;26740;45.944;12.480;2023-03-20T02:02:37;101520.38;;;9.26;100.00
40998;BME280;26740;45.944;12.480;2023-03-20T02:05:07;101514.16;;;9.30;100.00
40998;BME280;26740;45.944;12.480;2023-03-20T02:07:34;101511.19;;;9.32;100.00
40998;BME280;26740;45.944;12.480;2023-03-20T02:10:10;101512.00;;;9.33;100.00
40998;BME280;26740;45.944;12.480;2023-03-20T02:12:37;101504.53;;;9.33;100.00
40998;BME280;26740;45.944;12.480;2023-03-20T02:15:05;101505.41;;;9.34;100.00
40998;BME280;26740;45.944;12.480;2023-03-20T02:17:31;101500.75;;;9.27;100.00
40998;BME280;26740;45.944;12.480;2023-03-20T02:22:52;101506.34;;;9.21;100.00
40998;BME280;26740;45.944;12.480;2023-03-20T02:28:31;101501.13;;;9.13;100.00
40998;BME280;26740;45.944;12.480;2023-03-20T02:42:12;101519.34;;;9.02;100.00
40998;BME280;26740;45.944;12.480;2023-03-20T02:45:06;101513.53;;;9.03;100.00
40998;BME280;26740;45.944;12.480;2023-03-20T02:47:47;101522.31;;;9.00;100.00
40998;BME280;26740;45.944;12.480;2023-03-20T02:50:43;101518.50;;;8.95;100.00
40998;BME280;26740;45.944;12.480;2023-03-20T02:58:51;101529.31;;;8.78;100.00
40998;BME280;26740;45.944;12.480;2023-03-20T03:01:27;101533.13;;;8.77;100.00
40998;BME280;26740;45.944;12.480;2023-03-20T03:04:03;101524.72;;;8.65;100.00
40998;BME280;26740;45.944;12.480;2023-03-20T03:06:33;101529.00;;;8.61;100.00
40998;BME280;26740;45.944;12.480;2023-03-20T03:09:11;101515.59;;;8.58;100.00
40998;BME280;26740;45.944;12.480;2023-03-20T03:11:43;101521.81;;;8.53;100.00
40998;BME280;26740;45.944;12.480;2023-03-20T03:14:20;101522.44;;;8.55;100.00
40998;BME280;26740;45.944;12.480;2023-03-20T03:16:49;101524.59;;;8.46;100.00
40998;BME280;26740;45.944;12.480;2023-03-20T03:19:21;101519.97;;;8.33;100.00
40998;BME280;26740;45.944;12.480;2023-03-20T03:21:48;101520.84;;;8.27;100.00
40998;BME280;26740;45.944;12.480;2023-03-20T03:24:38;101519.78;;;8.28;100.00
40998;BME280;26740;45.944;12.480;2023-03-20T03:27:20;101517.84;;;8.29;100.00
40998;BME280;26740;45.944;12.480;2023-03-20T03:29:55;101514.88;;;8.30;100.00
40998;BME280;26740;45.944;12.480;2023-03-20T03:32:25;101519.97;;;8.33;100.00
40998;BME280;26740;45.944;12.480;2023-03-20T03:34:52;101517.63;;;8.30;100.00
40998;BME280;26740;45.944;12.480;2023-03-20T03:37:54;101519.19;;;8.20;100.00
40998;BME280;26740;45.944;12.480;2023-03-20T03:45:57;101509.84;;;8.14;100.00
40998;BME280;26740;45.944;12.480;2023-03-20T03:48:32;101505.47;;;8.00;100.00
40998;BME280;26740;45.944;12.480;2023-03-20T03:51:06;101511.00;;;8.00;100.00
40998;BME280;26740;45.944;12.480;2023-03-20T03:53:41;101513.72;;;8.06;100.00
40998;BME280;26740;45.944;12.480;2023-03-20T03:56:10;101506.72;;;8.04;100.00
40998;BME280;26740;45.944;12.480;2023-03-20T03:58:57;101513.97;;;7.98;100.00
40998;BME280;26740;45.944;12.480;2023-03-20T04:01:26;101505.69;;;7.98;100.00
40998;BME280;26740;45.944;12.480;2023-03-20T04:03:56;101507.16;;;7.94;100.00
40998;BME280;26740;45.944;12.480;2023-03-20T04:06:24;101505.28;;;7.88;100.00
40998;BME280;26740;45.944;12.480;2023-03-20T04:08:50;101495.94;;;7.82;100.00
40998;BME280;26740;45.944;12.480;2023-03-20T04:11:18;101500.19;;;7.78;100.00
40998;BME280;26740;45.944;12.480;2023-03-20T04:13:49;101506.41;;;7.73;100.00
40998;BME280;26740;45.944;12.480;2023-03-20T04:16:16;101506.81;;;7.77;100.00
40998;BME280;26740;45.944;12.480;2023-03-20T04:18:42;101500.19;;;7.78;100.00
40998;BME280;26740;45.944;12.480;2023-03-20T04:21:08;101507.66;;;7.77;100.00
40998;BME280;26740;45.944;12.480;2023-03-20T04:23:34;101505.31;;;7.74;100.00
40998;BME280;26740;45.944;12.480;2023-03-20T04:26:00;101505.38;;;7.68;100.00
40998;BME280;26740;45.944;12.480;2023-03-20T04:28:26;101503.66;;;7.67;100.00
40998;BME280;26740;45.944;12.480;2023-03-20T04:30:53;101501.31;;;7.70;100.00
40998;BME280;26740;45.944;12.480;2023-03-20T04:33:19;101506.63;;;7.72;100.00
40998;BME280;26740;45.944;12.480;2023-03-20T04:35:45;101500.88;;;7.73;100.00
40998;BME280;26740;45.944;12.480;2023-03-20T04:38:11;101498.94;;;7.74;100.00
40998;BME280;26740;45.944;12.480;2023-03-20T04:40:37;101500.66;;;7.75;100.00
40998;BME280;26740;45.944;12.480;2023-03-20T04:43:02;101500.41;;;7.83;100.00
40998;BME280;26740;45.944;12.480;2023-03-20T04:45:28;101489.13;;;7.85;100.00
40998;BME280;26740;45.944;12.480;2023-03-20T04:47:54;101494.44;;;7.86;100.00
40998;BME280;26740;45.944;12.480;2023-03-20T04:50:19;101485.53;;;7.84;100.00
40998;BME280;26740;45.944;12.480;2023-03-20T04:52:45;101490.75;;;8.06;100.00
40998;BME280;26740;45.944;12.480;2023-03-20T04:55:10;101483.66;;;8.16;100.00
40998;BME280;26740;45.944;12.480;2023-03-20T04:57:36;101481.28;;;8.20;100.00
40998;BME280;26740;45.944;12.480;2023-03-20T05:00:03;101486.41;;;8.23;100.00
40998;BME280;26740;45.944;12.480;2023-03-20T05:02:29;101484.22;;;8.32;100.00
40998;BME280;26740;45.944;12.480;2023-03-20T05:04:54;101481.63;;;8.44;100.00
40998;BME280;26740;45.944;12.480;2023-03-20T05:07:20;101480.03;;;8.61;100.00
40998;BME280;26740;45.944;12.480;2023-03-20T05:09:46;101476.53;;;8.72;100.00
40998;BME280;26740;45.944;12.480;2023-03-20T05:12:11;101480.09;;;8.80;100.00
40998;BME280;26740;45.944;12.480;2023-03-20T05:14:37;101479.59;;;8.89;100.00
40998;BME280;26740;45.944;12.480;2023-03-20T05:17:03;101484.00;;;8.97;100.00
40998;BME280;26740;45.944;12.480;2023-03-20T05:19:28;101494.16;;;9.03;100.00
40998;BME280;26740;45.944;12.480;2023-03-20T05:21:54;101493.72;;;9.06;100.00
40998;BME280;26740;45.944;12.480;2023-03-20T05:24:19;101497.09;;;9.08;100.00
40998;BME280;26740;45.944;12.480;2023-03-20T05:26:46;101500.97;;;9.07;100.00
40998;BME280;26740;45.944;12.480;2023-03-20T05:29:11;101496.69;;;9.05;100.00
40998;BME280;26740;45.944;12.480;2023-03-20T05:31:37;101500.56;;;9.04;100.00
40998;BME280;26740;45.944;12.480;2023-03-20T05:34:02;101497.63;;;8.99;100.00
40998;BME280;26740;45.944;12.480;2023-03-20T05:36:28;101498.63;;;8.79;100.00
40998;BME280;26740;45.944;12.480;2023-03-20T05:38:53;101506.97;;;8.72;100.00
40998;BME280;26740;45.944;12.480;2023-03-20T05:41:19;101500.69;;;8.59;100.00
40998;BME280;26740;45.944;12.480;2023-03-20T05:43:44;101494.09;;;8.60;100.00
40998;BME280;26740;45.944;12.480;2023-03-20T05:46:10;101500.91;;;8.57;100.00
40998;BME280;26740;45.944;12.480;2023-03-20T05:48:36;101505.38;;;8.58;100.00
40998;BME280;26740;45.944;12.480;2023-03-20T05:51:01;101510.22;;;8.63;100.00
40998;BME280;26740;45.944;12.480;2023-03-20T05:53:27;101497.66;;;8.67;100.00
40998;BME280;26740;45.944;12.480;2023-03-20T05:55:53;101501.66;;;8.71;100.00
40998;BME280;26740;45.944;12.480;2023-03-20T05:58:18;101506.81;;;8.67;100.00
40998;BME280;26740;45.944;12.480;2023-03-20T06:00:44;101514.22;;;8.73;100.00
40998;BME280;26740;45.944;12.480;2023-03-20T06:03:09;101511.97;;;8.89;100.00
40998;BME280;26740;45.944;12.480;2023-03-20T06:05:36;101511.88;;;9.02;100.00
40998;BME280;26740;45.944;12.480;2023-03-20T06:08:02;101510.50;;;9.11;100.00
40998;BME280;26740;45.944;12.480;2023-03-20T06:10:28;101510.00;;;9.21;100.00
40998;BME280;26740;45.944;12.480;2023-03-20T06:12:55;101513.34;;;9.30;100.00
40998;BME280;26740;45.944;12.480;2023-03-20T06:15:21;101509.81;;;9.41;100.00
40998;BME280;26740;45.944;12.480;2023-03-20T06:17:47;101524.66;;;9.47;100.00
40998;BME280;26740;45.944;12.480;2023-03-20T06:20:12;101514.75;;;9.58;100.00
40998;BME280;26740;45.944;12.480;2023-03-20T06:22:38;101521.22;;;9.70;100.00
40998;BME280;26740;45.944;12.480;2023-03-20T06:25:05;101523.84;;;9.83;100.00
40998;BME280;26740;45.944;12.480;2023-03-20T06:27:31;101519.84;;;9.98;100.00
40998;BME280;26740;45.944;12.480;2023-03-20T06:29:57;101527.28;;;10.16;100.00
40998;BME280;26740;45.944;12.480;2023-03-20T06:32:22;101529.44;;;10.32;100.00
40998;BME280;26740;45.944;12.480;2023-03-20T06:34:48;101537.53;;;10.52;100.00
40998;BME280;26740;45.944;12.480;2023-03-20T06:37:14;101535.41;;;10.66;100.00
40998;BME280;26740;45.944;12.480;2023-03-20T06:39:39;101537.47;;;10.71;100.00
40998;BME280;26740;45.944;12.480;2023-03-20T06:42:05;101540.72;;;10.68;100.00
40998;BME280;26740;45.944;12.480;2023-03-20T06:44:31;101539.31;;;10.77;100.00
40998;BME280;26740;45.944;12.480;2023-03-20T06:46:57;101554.41;;;10.81;100.00
40998;BME280;26740;45.944;12.480;2023-03-20T06:49:22;101551.34;;;10.71;100.00
40998;BME280;26740;45.944;12.480;2023-03-20T06:51:48;101556.81;;;10.77;100.00
40998;BME280;26740;45.944;12.480;2023-03-20T06:54:13;101563.84;;;10.80;100.00
40998;BME280;26740;45.944;12.480;2023-03-20T06:56:39;101547.91;;;10.87;100.00
40998;BME280;26740;45.944;12.480;2023-03-20T06:59:04;101552.59;;;10.75;100.00
40998;BME280;26740;45.944;12.480;2023-03-20T07:01:30;101558.28;;;10.80;100.00
40998;BME280;26740;45.944;12.480;2023-03-20T07:03:56;101569.31;;;10.98;100.00
40998;BME280;26740;45.944;12.480;2023-03-20T07:06:21;101566.88;;;10.90;100.00
40998;BME280;26740;45.944;12.480;2023-03-20T07:08:47;101578.03;;;10.72;100.00
40998;BME280;26740;45.944;12.480;2023-03-20T07:11:13;101562.97;;;10.79;100.00
40998;BME280;26740;45.944;12.480;2023-03-20T07:13:38;101561.81;;;10.87;100.00
40998;BME280;26740;45.944;12.480;2023-03-20T07:16:04;101570.88;;;10.94;100.00
40998;BME280;26740;45.944;12.480;2023-03-20T07:18:31;101570.47;;;11.21;100.00
40998;BME280;26740;45.944;12.480;2023-03-20T07:20:59;101572.66;;;11.43;100.00
40998;BME280;26740;45.944;12.480;2023-03-20T07:23:27;101565.16;;;11.55;100.00
40998;BME280;26740;45.944;12.480;2023-03-20T07:25:52;101572.41;;;11.68;100.00
40998;BME280;26740;45.944;12.480;2023-03-20T07:28:18;101572.56;;;11.97;100.00
40998;BME280;26740;45.944;12.480;2023-03-20T07:30:43;101575.53;;;12.19;100.00
40998;BME280;26740;45.944;12.480;2023-03-20T07:33:09;101568.38;;;12.23;100.00
40998;BME280;26740;45.944;12.480;2023-03-20T07:35:34;101574.13;;;12.45;100.00
40998;BME280;26740;45.944;12.480;2023-03-20T07:38:00;101585.03;;;12.75;100.00
40998;BME280;26740;45.944;12.480;2023-03-20T07:40:26;101583.53;;;12.84;100.00
40998;BME280;26740;45.944;12.480;2023-03-20T07:42:51;101589.63;;;12.81;100.00
40998;BME280;26740;45.944;12.480;2023-03-20T07:45:17;101584.66;;;13.00;100.00
40998;BME280;26740;45.944;12.480;2023-03-20T07:47:44;101594.81;;;13.06;100.00
40998;BME280;26740;45.944;12.480;2023-03-20T07:50:10;101589.69;;;13.15;100.00
40998;BME280;26740;45.944;12.480;2023-03-20T07:52:36;101600.69;;;13.22;100.00
40998;BME280;26740;45.944;12.480;2023-03-20T07:55:02;101588.88;;;13.32;100.00
40998;BME280;26740;45.944;12.480;2023-03-20T07:57:27;101597.59;;;13.52;100.00
40998;BME280;26740;45.944;12.480;2023-03-20T07:59:53;101589.25;;;13.23;100.00
40998;BME280;26740;45.944;12.480;2023-03-20T08:02:18;101597.84;;;13.51;100.00
40998;BME280;26740;45.944;12.480;2023-03-20T08:04:44;101603.47;;;13.73;100.00
40998;BME280;26740;45.944;12.480;2023-03-20T08:07:11;101601.63;;;13.78;100.00
40998;BME280;26740;45.944;12.480;2023-03-20T08:09:36;101599.13;;;13.99;100.00
40998;BME280;26740;45.944;12.480;2023-03-20T08:12:03;101605.03;;;14.02;100.00
40998;BME280;26740;45.944;12.480;2023-03-20T08:14:29;101595.72;;;14.14;100.00
40998;BME280;26740;45.944;12.480;2023-03-20T08:16:54;101603.88;;;14.20;100.00
40998;BME280;26740;45.944;12.480;2023-03-20T08:19:20;101592.94;;;14.14;100.00
40998;BME280;26740;45.944;12.480;2023-03-20T08:21:46;101592.47;;;13.83;100.00
40998;BME280;26740;45.944;12.480;2023-03-20T08:24:13;101590.13;;;13.75;100.00
40998;BME280;26740;45.944;12.480;2023-03-20T08:26:38;101591.75;;;13.54;100.00
40998;BME280;26740;45.944;12.480;2023-03-20T08:29:04;101594.22;;;13.50;100.00
40998;BME280;26740;45.944;12.480;2023-03-20T08:31:30;101585.41;;;13.41;100.00
40998;BME280;26740;45.944;12.480;2023-03-20T08:33:56;101587.16;;;13.31;100.00
40998;BME280;26740;45.944;12.480;2023-03-20T08:36:22;101585.91;;;13.38;100.00
40998;BME280;26740;45.944;12.480;2023-03-20T08:38:49;101591.66;;;13.32;100.00
40998;BME280;26740;45.944;12.480;2023-03-20T08:41:15;101589.31;;;13.40;100.00
40998;BME280;26740;45.944;12.480;2023-03-20T08:43:41;101596.38;;;13.48;100.00
40998;BME280;26740;45.944;12.480;2023-03-20T08:46:07;101597.66;;;13.74;100.00
40998;BME280;26740;45.944;12.480;2023-03-20T08:48:33;101596.25;;;13.94;100.00
40998;BME280;26740;45.944;12.480;2023-03-20T08:50:59;101600.69;;;13.90;100.00
40998;BME280;26740;45.944;12.480;2023-03-20T08:53:25;101603.34;;;13.62;100.00
40998;BME280;26740;45.944;12.480;2023-03-20T08:55:52;101607.97;;;13.91;100.00
40998;BME280;26740;45.944;12.480;2023-03-20T08:58:19;101602.53;;;14.23;100.00
40998;BME280;26740;45.944;12.480;2023-03-20T09:00:45;101603.53;;;14.12;100.00
40998;BME280;26740;45.944;12.480;2023-03-20T09:03:12;101608.03;;;14.35;100.00
40998;BME280;26740;45.944;12.480;2023-03-20T09:05:39;101605.78;;;14.15;100.00
40998;BME280;26740;45.944;12.480;2023-03-20T09:08:05;101600.25;;;14.20;100.00
40998;BME280;26740;45.944;12.480;2023-03-20T09:10:31;101598.09;;;14.93;100.00
40998;BME280;26740;45.944;12.480;2023-03-20T09:12:58;101593.97;;;15.61;100.00
40998;BME280;26740;45.944;12.480;2023-03-20T09:15:25;101606.59;;;16.64;100.00
40998;BME280;26740;45.944;12.480;2023-03-20T09:17:51;101602.56;;;17.49;95.75
40998;BME280;26740;45.944;12.480;2023-03-20T09:20:16;101596.38;;;17.77;89.37
40998;BME280;26740;45.944;12.480;2023-03-20T09:22:42;101597.47;;;16.84;95.21
40998;BME280;26740;45.944;12.480;2023-03-20T09:25:10;101595.84;;;17.19;95.70
40998;BME280;26740;45.944;12.480;2023-03-20T09:27:37;101594.03;;;16.72;100.00
40998;BME280;26740;45.944;12.480;2023-03-20T09:30:04;101591.91;;;17.30;96.72
40998;BME280;26740;45.944;12.480;2023-03-20T09:32:30;101596.66;;;17.76;91.78
40998;BME280;26740;45.944;12.480;2023-03-20T09:34:55;101591.63;;;17.27;100.00
40998;BME280;26740;45.944;12.480;2023-03-20T09:37:21;101584.81;;;16.13;100.00
40998;BME280;26740;45.944;12.480;2023-03-20T09:39:47;101588.91;;;16.00;100.00
40998;BME280;26740;45.944;12.480;2023-03-20T09:45:11;101593.88;;;17.91;92.25
40998;BME280;26740;45.944;12.480;2023-03-20T09:50:12;101585.59;;;19.65;77.82
40998;BME280;26740;45.944;12.480;2023-03-20T09:55:35;101579.63;;;20.01;73.03
40998;BME280;26740;45.944;12.480;2023-03-20T09:58:13;101580.09;;;17.85;86.53
40998;BME280;26740;45.944;12.480;2023-03-20T10:00:44;101580.13;;;17.38;87.01
40998;BME280;26740;45.944;12.480;2023-03-20T10:03:31;101573.94;;;17.62;87.48
40998;BME280;26740;45.944;12.480;2023-03-20T10:06:03;101583.50;;;17.51;89.13
40998;BME280;26740;45.944;12.480;2023-03-20T10:08:36;101572.22;;;17.61;89.96
40998;BME280;26740;45.944;12.480;2023-03-20T10:18:48;101576.09;;;18.87;87.83
40998;BME280;26740;45.944;12.480;2023-03-20T10:21:20;101572.59;;;18.50;89.36
40998;BME280;26740;45.944;12.480;2023-03-20T10:23:59;101574.88;;;20.44;81.56
40998;BME280;26740;45.944;12.480;2023-03-20T10:26:28;101567.19;;;20.74;71.07
40998;BME280;26740;45.944;12.480;2023-03-20T10:29:10;101570.28;;;22.09;63.51
40998;BME280;26740;45.944;12.480;2023-03-20T10:31:54;101569.84;;;20.66;68.59
40998;BME280;26740;45.944;12.480;2023-03-20T10:42:48;101556.81;;;21.40;70.63
40998;BME280;26740;45.944;12.480;2023-03-20T10:45:39;101553.47;;;20.87;73.46
40998;BME280;26740;45.944;12.480;2023-03-20T10:48:31;101556.72;;;20.75;72.92
40998;BME280;26740;45.944;12.480;2023-03-20T10:51:00;101561.16;;;20.62;63.03
40998;BME280;26740;45.944;12.480;2023-03-20T10:53:36;101545.50;;;21.59;63.89
40998;BME280;26740;45.944;12.480;2023-03-20T10:56:09;101547.50;;;20.69;66.29
40998;BME280;26740;45.944;12.480;2023-03-20T10:58:41;101549.13;;;20.51;66.67
40998;BME280;26740;45.944;12.480;2023-03-20T11:01:08;101547.53;;;19.04;77.34
40998;BME280;26740;45.944;12.480;2023-03-20T11:03:34;101545.81;;;19.77;70.58
40998;BME280;26740;45.944;12.480;2023-03-20T11:06:22;101540.53;;;19.94;69.05
40998;BME280;26740;45.944;12.480;2023-03-20T11:08:52;101546.91;;;20.48;69.20
40998;BME280;26740;45.944;12.480;2023-03-20T11:11:26;101539.56;;;20.04;66.02
40998;BME280;26740;45.944;12.480;2023-03-20T11:13:53;101538.63;;;19.55;76.24
40998;BME280;26740;45.944;12.480;2023-03-20T11:16:29;101528.38;;;19.06;80.01
40998;BME280;26740;45.944;12.480;2023-03-20T11:19:06;101538.72;;;20.27;71.74
40998;BME280;26740;45.944;12.480;2023-03-20T11:21:36;101529.97;;;20.72;76.37
40998;BME280;26740;45.944;12.480;2023-03-20T11:24:34;101535.38;;;19.72;70.82
40998;BME280;26740;45.944;12.480;2023-03-20T11:27:06;101522.31;;;19.57;73.54
40998;BME280;26740;45.944;12.480;2023-03-20T11:29:33;101538.72;;;18.16;81.65
40998;BME280;26740;45.944;12.480;2023-03-20T11:32:15;101532.16;;;18.91;76.85
40998;BME280;26740;45.944;12.480;2023-03-20T11:34:44;101526.59;;;19.49;78.27
40998;BME280;26740;45.944;12.480;2023-03-20T11:37:28;101525.16;;;18.88;74.67
40998;BME280;26740;45.944;12.480;2023-03-20T11:40:00;101514.53;;;19.73;61.84
40998;BME280;26740;45.944;12.480;2023-03-20T11:42:31;101514.63;;;19.63;74.39
40998;BME280;26740;45.944;12.480;2023-03-20T11:45:04;101516.44;;;18.25;78.70
40998;BME280;26740;45.944;12.480;2023-03-20T11:47:33;101507.84;;;19.64;73.17
40998;BME280;26740;45.944;12.480;2023-03-20T11:50:03;101510.03;;;19.72;77.49
40998;BME280;26740;45.944;12.480;2023-03-20T11:52:33;101499.03;;;19.70;76.55
40998;BME280;26740;45.944;12.480;2023-03-20T11:55:02;101503.75;;;20.04;71.70
40998;BME280;26740;45.944;12.480;2023-03-20T11:57:38;101500.69;;;18.79;70.84
40998;BME280;26740;45.944;12.480;2023-03-20T12:02:36;101498.25;;;18.62;80.10
40998;BME280;26740;45.944;12.480;2023-03-20T12:05:35;101495.44;;;18.62;72.69
40998;BME280;26740;45.944;12.480;2023-03-20T12:10:36;101491.22;;;18.14;82.38
40998;BME280;26740;45.944;12.480;2023-03-20T12:15:37;101477.84;;;17.86;81.75
40998;BME280;26740;45.944;12.480;2023-03-20T12:18:11;101475.31;;;18.44;87.35
40998;BME280;26740;45.944;12.480;2023-03-20T12:20:44;101475.84;;;18.51;76.80
40998;BME280;26740;45.944;12.480;2023-03-20T12:23:26;101472.66;;;18.18;78.88
40998;BME280;26740;45.944;12.480;2023-03-20T12:28:57;101463.88;;;17.39;76.72
40998;BME280;26740;45.944;12.480;2023-03-20T12:31:31;101459.91;;;17.56;82.73
40998;BME280;26740;45.944;12.480;2023-03-20T12:36:40;101459.53;;;17.98;76.44
40998;BME280;26740;45.944;12.480;2023-03-20T12:39:13;101453.13;;;17.88;87.56
40998;BME280;26740;45.944;12.480;2023-03-20T12:42:19;101456.59;;;18.69;74.45
40998;BME280;26740;45.944;12.480;2023-03-20T12:45:09;101437.09;;;18.77;75.81
40998;BME280;26740;45.944;12.480;2023-03-20T12:47:51;101434.41;;;19.02;71.44
40998;BME280;26740;45.944;12.480;2023-03-20T12:50:28;101436.88;;;19.08;78.19
40998;BME280;26740;45.944;12.480;2023-03-20T13:01:49;101433.75;;;19.63;73.21
40998;BME280;26740;45.944;12.480;2023-03-20T13:04:27;101432.47;;;20.42;66.81
40998;BME280;26740;45.944;12.480;2023-03-20T13:07:00;101426.66;;;20.52;69.93
40998;BME280;26740;45.944;12.480;2023-03-20T13:12:31;101438.97;;;19.51;70.76
40998;BME280;26740;45.944;12.480;2023-03-20T13:18:36;101424.91;;;18.53;76.51
40998;BME280;26740;45.944;12.480;2023-03-20T13:21:18;101432.31;;;17.84;82.20
40998;BME280;26740;45.944;12.480;2023-03-20T13:29:16;101414.56;;;16.92;90.08
40998;BME280;26740;45.944;12.480;2023-03-20T13:32:02;101417.34;;;16.77;93.75
40998;BME280;26740;45.944;12.480;2023-03-20T13:40:19;101418.44;;;16.35;93.99
40998;BME280;26740;45.944;12.480;2023-03-20T13:45:53;101428.00;;;17.31;88.33
40998;BME280;26740;45.944;12.480;2023-03-20T13:50:50;101414.00;;;17.05;94.39
40998;BME280;26740;45.944;12.480;2023-03-20T13:55:59;101407.28;;;16.91;100.00
40998;BME280;26740;45.944;12.480;2023-03-20T14:03:36;101396.31;;;16.79;100.00
40998;BME280;26740;45.944;12.480;2023-03-20T14:06:17;101400.50;;;16.61;100.00
40998;BME280;26740;45.944;12.480;2023-03-20T14:08:48;101402.78;;;16.90;97.80
40998;BME280;26740;45.944;12.480;2023-03-20T14:13:57;101399.94;;;17.16;91.76
40998;BME280;26740;45.944;12.480;2023-03-20T14:16:26;101403.88;;;17.04;100.00
40998;BME280;26740;45.944;12.480;2023-03-20T14:19:18;101409.44;;;17.40;93.87
40998;BME280;26740;45.944;12.480;2023-03-20T14:21:49;101410.81;;;17.43;93.71
40998;BME280;26740;45.944;12.480;2023-03-20T14:24:17;101409.44;;;17.40;89.28
40998;BME280;26740;45.944;12.480;2023-03-20T14:26:57;101406.59;;;17.51;88.67
40998;BME280;26740;45.944;12.480;2023-03-20T14:32:21;101399.13;;;17.10;95.87
40998;BME280;26740;45.944;12.480;2023-03-20T14:40:35;101404.41;;;17.17;91.63
40998;BME280;26740;45.944;12.480;2023-03-20T14:43:16;101394.88;;;17.28;93.33
40998;BME280;26740;45.944;12.480;2023-03-20T14:45:53;101396.88;;;17.12;93.10
40998;BME280;26740;45.944;12.480;2023-03-20T14:48:36;101391.25;;;17.12;96.21
40998;BME280;26740;45.944;12.480;2023-03-20T14:51:19;101399.41;;;17.14;94.23
40998;BME280;26740;45.944;12.480;2023-03-20T14:56:37;101404.13;;;17.34;90.78
40998;BME280;26740;45.944;12.480;2023-03-20T14:59:04;101399.34;;;17.34;91.26